createdAt,value
2022-07-30T00:00:53.568Z,0.40
2022-07-30T00:03:21.150Z,0.32
2022-07-30T00:05:49.076Z,0.30
2022-07-30T00:08:16.464Z,0.30
2022-07-30T00:10:43.906Z,0.30
2022-07-30T00:13:14.095Z,0.40
2022-07-30T00:15:42.283Z,0.20
2022-07-30T00:18:09.612Z,0.43
2022-07-30T00:20:40.606Z,0.40
2022-07-30T00:23:11.013Z,0.32
2022-07-30T00:25:38.632Z,0.32
2022-07-30T00:28:06.140Z,0.40
2022-07-30T00:30:33.628Z,0.30
2022-07-30T00:33:01.137Z,0.35
2022-07-30T00:35:28.675Z,0.30
2022-07-30T00:37:56.002Z,0.30
2022-07-30T00:40:23.735Z,0.30
2022-07-30T00:42:51.056Z,0.47
2022-07-30T00:45:18.963Z,0.50
2022-07-30T00:47:46.456Z,0.40
2022-07-30T00:50:14.937Z,0.40
2022-07-30T00:52:43.140Z,0.30
2022-07-30T00:55:14.104Z,0.40
2022-07-30T00:57:42.635Z,0.40
2022-07-30T01:00:13.871Z,0.57
2022-07-30T01:02:42.145Z,0.40
2022-07-30T01:05:10.272Z,0.40
2022-07-30T01:07:37.944Z,0.55
2022-07-30T01:10:07.724Z,0.57
2022-07-30T01:12:35.277Z,0.73
2022-07-30T01:15:05.221Z,0.40
2022-07-30T01:17:33.812Z,0.50
2022-07-30T01:20:07.035Z,0.40
2022-07-30T01:22:42.551Z,0.98
2022-07-30T01:25:32.231Z,0.40
2022-07-30T01:28:12.706Z,0.40
2022-07-30T01:30:43.291Z,0.30
2022-07-30T01:33:14.502Z,0.40
2022-07-30T01:35:45.202Z,0.40
2022-07-30T01:38:14.293Z,0.30
2022-07-30T01:40:44.443Z,0.40
2022-07-30T01:43:13.054Z,0.40
2022-07-30T01:45:44.333Z,0.30
2022-07-30T01:48:15.052Z,0.30
2022-07-30T01:50:45.768Z,0.30
2022-07-30T01:53:23.916Z,0.40
2022-07-30T01:55:53.202Z,0.20
2022-07-30T01:58:24.745Z,0.38
2022-07-30T02:03:25.257Z,0.40
2022-07-30T02:06:01.619Z,0.32
2022-07-30T02:08:40.810Z,0.30
2022-07-30T02:11:11.951Z,0.40
2022-07-30T02:13:54.612Z,0.30
2022-07-30T02:16:28.783Z,0.20
2022-07-30T02:19:10.327Z,0.30
2022-07-30T02:21:58.958Z,0.30
2022-07-30T02:24:33.749Z,0.35
2022-07-30T02:27:10.470Z,0.40
2022-07-30T02:29:39.270Z,0.30
2022-07-30T02:32:11.063Z,0.50
2022-07-30T02:34:41.873Z,0.38
2022-07-30T02:37:12.539Z,0.47
2022-07-30T02:39:42.928Z,0.43
2022-07-30T02:42:13.181Z,0.40
2022-07-30T02:44:44.041Z,0.50
2022-07-30T02:47:14.172Z,0.40
2022-07-30T02:50:03.767Z,0.60
2022-07-30T02:52:33.276Z,0.60
2022-07-30T02:55:02.965Z,0.57
2022-07-30T02:57:33.180Z,0.75
2022-07-30T03:00:01.575Z,0.50
2022-07-30T03:02:31.419Z,0.70
2022-07-30T03:05:01.965Z,0.50
2022-07-30T03:07:32.711Z,0.63
2022-07-30T03:10:01.141Z,0.80
2022-07-30T03:12:34.633Z,0.80
2022-07-30T03:15:03.066Z,0.60
2022-07-30T03:17:37.619Z,0.60
2022-07-30T03:22:38.448Z,0.70
2022-07-30T03:25:07.690Z,0.82
2022-07-30T03:27:38.283Z,1.08
2022-07-30T03:30:07.635Z,0.95
2022-07-30T03:32:37.087Z,1.17
2022-07-30T03:35:08.778Z,1.02
2022-07-30T03:37:47.075Z,0.60
2022-07-30T03:40:15.388Z,1.30
2022-07-30T03:42:45.570Z,1.10
2022-07-30T03:45:16.070Z,1.10
2022-07-30T03:47:44.701Z,1.20
2022-07-30T03:50:15.235Z,1.13
2022-07-30T03:52:43.644Z,1.80
2022-07-30T03:55:16.937Z,1.50
2022-07-30T03:57:51.121Z,1.90
2022-07-30T04:00:22.835Z,2.53
2022-07-30T04:02:52.849Z,3.33
2022-07-30T04:05:43.626Z,2.53
2022-07-30T04:08:12.744Z,2.70
2022-07-30T04:10:41.912Z,2.30
2022-07-30T04:13:41.573Z,4.35
2022-07-30T04:16:38.873Z,3.83
2022-07-30T04:19:01.451Z,3.75
2022-07-30T04:21:32.180Z,4.60
2022-07-30T04:24:05.038Z,5.38
2022-07-30T04:26:36.022Z,3.67
2022-07-30T04:29:07.579Z,3.80
2022-07-30T04:31:39.909Z,5.00
2022-07-30T04:34:28.889Z,4.00
2022-07-30T04:36:56.908Z,4.07
2022-07-30T04:39:24.563Z,3.10
2022-07-30T04:41:52.276Z,4.35
2022-07-30T04:44:49.963Z,5.20
2022-07-30T04:47:29.039Z,6.47
2022-07-30T04:50:25.473Z,5.43
2022-07-30T04:52:56.366Z,5.05
2022-07-30T04:55:28.505Z,4.35
2022-07-30T04:57:58.099Z,4.80
2022-07-30T05:00:26.734Z,4.30
2022-07-30T05:02:55.516Z,4.10
2022-07-30T05:05:26.308Z,5.20
2022-07-30T05:07:55.613Z,4.88
2022-07-30T05:10:23.660Z,4.60
2022-07-30T05:12:51.958Z,4.05
2022-07-30T05:15:21.315Z,5.72
2022-07-30T05:17:49.640Z,6.50
2022-07-30T05:20:17.207Z,4.63
2022-07-30T05:23:03.307Z,5.40
2022-07-30T05:25:30.921Z,3.97
2022-07-30T05:28:10.246Z,5.25
2022-07-30T05:30:38.297Z,6.43
2022-07-30T05:33:15.605Z,5.25
2022-07-30T05:35:43.942Z,5.70
2022-07-30T05:38:11.323Z,4.13
2022-07-30T05:40:57.246Z,6.45
2022-07-30T05:43:56.102Z,5.75
2022-07-30T05:46:24.346Z,5.05
2022-07-30T05:48:51.993Z,3.40
2022-07-30T05:51:20.967Z,2.40
2022-07-30T05:53:48.570Z,5.07
2022-07-30T05:56:32.902Z,6.50
2022-07-30T05:59:10.123Z,4.07
2022-07-30T06:01:55.710Z,3.50
2022-07-30T06:04:29.722Z,4.22
2022-07-30T06:07:03.648Z,3.70
2022-07-30T06:09:36.857Z,2.67
2022-07-30T06:12:05.881Z,2.58
2022-07-30T06:14:33.314Z,2.67
2022-07-30T06:17:01.450Z,2.90
2022-07-30T06:19:39.320Z,4.30
2022-07-30T06:22:07.290Z,4.35
2022-07-30T06:24:40.732Z,2.67
2022-07-30T06:27:13.130Z,2.80
2022-07-30T06:29:40.495Z,2.95
2022-07-30T06:32:08.742Z,4.13
2022-07-30T06:34:36.116Z,3.20
2022-07-30T06:37:03.866Z,2.58
2022-07-30T06:39:55.932Z,2.53
2022-07-30T06:42:37.389Z,3.08
2022-07-30T06:45:24.782Z,2.88
2022-07-30T06:48:14.339Z,3.05
2022-07-30T06:50:41.901Z,2.47
2022-07-30T06:53:09.145Z,2.90
2022-07-30T06:55:58.508Z,2.38
2022-07-30T06:58:35.606Z,2.80
2022-07-30T07:01:23.658Z,1.80
2022-07-30T07:03:52.052Z,1.92
2022-07-30T07:06:19.644Z,3.25
2022-07-30T07:08:47.101Z,1.20
2022-07-30T07:11:18.159Z,2.33
2022-07-30T07:13:48.976Z,1.75
2022-07-30T07:16:27.389Z,2.17
2022-07-30T07:18:56.120Z,1.10
2022-07-30T07:21:23.705Z,1.20
2022-07-30T07:23:53.285Z,1.42
2022-07-30T07:26:39.222Z,1.30
2022-07-30T07:29:08.283Z,1.20
2022-07-30T07:32:07.155Z,0.93
2022-07-30T07:34:23.214Z,1.08
2022-07-30T07:36:50.477Z,1.20
2022-07-30T07:39:17.762Z,0.95
2022-07-30T07:41:48.854Z,0.70
2022-07-30T07:46:46.796Z,0.77
2022-07-30T07:49:14.209Z,0.45
2022-07-30T07:51:48.716Z,0.70
2022-07-30T07:54:21.967Z,0.65
2022-07-30T07:56:56.619Z,0.60
2022-07-30T07:59:40.557Z,0.45
2022-07-30T08:02:16.129Z,0.60
2022-07-30T08:04:43.427Z,0.50
2022-07-30T08:07:10.703Z,0.50
2022-07-30T08:10:11.304Z,0.43
2022-07-30T08:12:58.780Z,0.40
2022-07-30T08:15:46.153Z,0.57
2022-07-30T08:18:16.452Z,0.75
2022-07-30T08:20:54.372Z,0.60
2022-07-30T08:23:26.578Z,0.50
2022-07-30T08:25:53.811Z,0.50
2022-07-30T08:28:35.707Z,1.10
2022-07-30T08:31:03.952Z,0.63
2022-07-30T08:33:31.240Z,0.57
2022-07-30T08:36:03.058Z,0.50
2022-07-30T08:41:00.401Z,0.40
2022-07-30T08:43:29.157Z,0.47
2022-07-30T08:45:58.953Z,0.60
2022-07-30T08:49:09.213Z,0.77
2022-07-30T08:51:40.133Z,0.60
2022-07-30T08:54:23.038Z,0.60
2022-07-30T08:56:50.781Z,0.70
2022-07-30T08:59:18.564Z,0.60
2022-07-30T09:01:45.904Z,0.40
2022-07-30T09:04:14.424Z,0.70
2022-07-30T09:06:42.815Z,0.80
2022-07-30T09:09:10.712Z,0.60
2022-07-30T09:11:38.015Z,0.60
2022-07-30T09:14:14.234Z,0.40
2022-07-30T09:16:45.302Z,0.60
2022-07-30T09:19:15.864Z,0.52
2022-07-30T09:21:54.693Z,0.40
2022-07-30T09:24:26.223Z,0.38
2022-07-30T09:27:07.411Z,0.40
2022-07-30T09:30:08.870Z,0.50
2022-07-30T09:32:56.538Z,0.57
2022-07-30T09:35:43.520Z,0.40
2022-07-30T09:38:12.015Z,0.60
2022-07-30T09:41:00.150Z,0.40
2022-07-30T09:43:52.315Z,0.40
2022-07-30T09:46:40.367Z,0.43
2022-07-30T09:49:24.975Z,0.50
2022-07-30T09:51:55.672Z,0.35
2022-07-30T09:54:51.629Z,0.43
2022-07-30T09:57:25.675Z,0.50
2022-07-30T09:59:59.952Z,0.45
2022-07-30T10:02:32.895Z,0.63
2022-07-30T10:05:19.409Z,0.40
2022-07-30T10:07:59.722Z,0.47
2022-07-30T10:10:31.076Z,0.40
2022-07-30T10:13:04.585Z,0.50
2022-07-30T10:15:35.042Z,0.35
2022-07-30T10:18:06.191Z,0.30
2022-07-30T10:20:52.984Z,0.30
2022-07-30T10:23:51.349Z,0.30
2022-07-30T10:26:38.036Z,0.30
2022-07-30T10:29:34.102Z,0.20
2022-07-30T10:32:02.675Z,0.47
2022-07-30T10:34:34.416Z,0.40
2022-07-30T10:37:06.749Z,0.40
2022-07-30T10:40:07.684Z,0.70
2022-07-30T10:43:03.711Z,0.50
2022-07-30T10:45:57.228Z,0.55
2022-07-30T10:48:25.400Z,0.50
2022-07-30T10:50:57.688Z,0.93
2022-07-30T10:53:39.833Z,0.40
2022-07-30T10:56:25.591Z,0.55
2022-07-30T10:59:08.135Z,0.60
2022-07-30T11:01:51.803Z,0.60
2022-07-30T11:04:29.410Z,0.60
2022-07-30T11:07:23.917Z,0.47
2022-07-30T11:10:05.212Z,0.60
2022-07-30T11:12:42.234Z,0.70
2022-07-30T11:15:18.644Z,0.50
2022-07-30T11:18:01.645Z,0.63
2022-07-30T11:20:30.915Z,0.57
2022-07-30T11:23:20.783Z,0.50
2022-07-30T11:25:51.370Z,0.70
2022-07-30T11:28:49.523Z,0.70
2022-07-30T11:31:55.609Z,0.50
2022-07-30T11:34:19.054Z,0.40
2022-07-30T11:37:18.373Z,0.40
2022-07-30T11:39:56.023Z,0.45
2022-07-30T11:42:37.727Z,0.30
2022-07-30T11:45:16.854Z,0.63
2022-07-30T11:47:52.195Z,0.50
2022-07-30T11:50:19.634Z,0.65
2022-07-30T11:52:54.474Z,0.40
2022-07-30T11:55:36.751Z,0.40
2022-07-30T11:58:06.261Z,0.40
2022-07-30T12:00:45.634Z,0.50
2022-07-30T12:03:15.609Z,0.50
2022-07-30T12:05:44.149Z,0.30
2022-07-30T12:08:35.135Z,0.40
2022-07-30T12:11:03.122Z,0.30
2022-07-30T12:13:45.007Z,0.30
2022-07-30T12:16:18.992Z,0.22
2022-07-30T12:18:47.992Z,0.43
2022-07-30T12:21:16.361Z,0.43
2022-07-30T12:23:55.922Z,0.40
2022-07-30T12:26:29.456Z,0.30
2022-07-30T12:28:58.432Z,0.30
2022-07-30T12:31:26.758Z,0.50
2022-07-30T12:33:58.913Z,0.40
2022-07-30T12:36:33.107Z,0.30
2022-07-30T12:39:02.450Z,0.40
2022-07-30T12:41:43.846Z,0.40
2022-07-30T12:44:11.369Z,0.50
2022-07-30T12:46:41.333Z,0.50
2022-07-30T12:49:21.318Z,0.40
2022-07-30T12:52:00.242Z,0.90
2022-07-30T12:54:28.968Z,0.43
2022-07-30T12:57:02.515Z,0.40
2022-07-30T12:59:31.691Z,0.30
2022-07-30T13:02:03.521Z,0.40
2022-07-30T13:04:33.458Z,0.32
2022-07-30T13:07:11.797Z,0.50
2022-07-30T13:09:43.118Z,0.40
2022-07-30T13:12:15.146Z,0.30
2022-07-30T13:14:42.417Z,0.50
2022-07-30T13:17:10.889Z,0.40
2022-07-30T13:19:38.327Z,0.30
2022-07-30T13:22:05.562Z,0.40
2022-07-30T13:24:34.182Z,0.40
2022-07-30T13:27:01.618Z,0.30
2022-07-30T13:29:29.158Z,0.40
2022-07-30T13:31:56.413Z,0.45
2022-07-30T13:34:23.670Z,0.45
2022-07-30T13:36:50.962Z,0.45
2022-07-30T13:39:18.226Z,0.30
2022-07-30T13:41:45.876Z,0.45
2022-07-30T13:44:13.122Z,0.20
2022-07-30T13:46:41.379Z,0.60
2022-07-30T13:49:09.022Z,0.40
2022-07-30T13:51:36.420Z,0.32
2022-07-30T13:54:05.082Z,0.40
2022-07-30T13:56:32.349Z,0.40
2022-07-30T13:59:00.711Z,0.50
2022-07-30T14:01:28.126Z,0.40
2022-07-30T14:03:55.427Z,0.47
2022-07-30T14:06:22.678Z,0.30
2022-07-30T14:08:49.924Z,0.40
2022-07-30T14:11:17.942Z,0.63
2022-07-30T14:13:46.004Z,0.38
2022-07-30T14:16:42.599Z,0.30
2022-07-30T14:19:01.285Z,0.30
2022-07-30T14:21:28.752Z,0.30
2022-07-30T14:23:56.429Z,0.30
2022-07-30T14:26:23.783Z,0.30
2022-07-30T14:28:51.115Z,0.30
2022-07-30T14:31:18.355Z,0.20
2022-07-30T14:33:45.601Z,0.32
2022-07-30T14:36:12.930Z,0.20
2022-07-30T14:38:40.163Z,0.30
2022-07-30T14:41:08.953Z,0.30
2022-07-30T14:43:36.276Z,0.40
2022-07-30T14:46:03.616Z,0.40
2022-07-30T14:48:30.862Z,0.50
2022-07-30T14:51:14.480Z,0.70
2022-07-30T14:53:47.226Z,0.68
2022-07-30T14:56:14.904Z,0.60
2022-07-30T14:58:45.405Z,0.50
2022-07-30T15:01:16.291Z,0.40
2022-07-30T15:03:46.793Z,0.28
2022-07-30T15:06:15.534Z,0.30
2022-07-30T15:08:43.777Z,0.38
2022-07-30T15:11:11.033Z,0.35
2022-07-30T15:13:41.073Z,0.30
2022-07-30T15:16:18.828Z,0.30
2022-07-30T15:18:46.384Z,0.40
2022-07-30T15:21:13.844Z,0.30
2022-07-30T15:23:41.395Z,0.30
2022-07-30T15:26:08.686Z,0.43
2022-07-30T15:28:35.893Z,0.50
2022-07-30T15:31:03.593Z,0.60
2022-07-30T15:33:30.933Z,0.47
2022-07-30T15:36:03.894Z,0.20
2022-07-30T15:38:31.135Z,0.30
2022-07-30T15:40:58.392Z,0.20
2022-07-30T15:43:25.679Z,0.28
2022-07-30T15:45:56.175Z,0.20
2022-07-30T15:48:26.932Z,0.20
2022-07-30T15:51:05.215Z,0.13
2022-07-30T15:53:33.208Z,0.30
2022-07-30T15:56:00.757Z,0.20
2022-07-30T15:58:28.286Z,0.28
2022-07-30T16:00:55.899Z,0.30
2022-07-30T16:03:23.218Z,0.38
2022-07-30T16:05:50.979Z,0.20
2022-07-30T16:08:21.049Z,0.20
2022-07-30T16:10:49.039Z,0.20
2022-07-30T16:13:16.547Z,0.10
2022-07-30T16:15:44.334Z,0.10
2022-07-30T16:18:11.596Z,0.93
2022-07-30T16:20:38.913Z,4.30
2022-07-30T16:23:10.423Z,1.00
2022-07-30T16:28:07.583Z,0.95
2022-07-30T16:30:34.854Z,1.38
2022-07-30T16:33:04.396Z,0.70
2022-07-30T16:35:31.625Z,0.40
2022-07-30T16:38:02.826Z,0.30
2022-07-30T16:40:30.951Z,0.38
2022-07-30T16:42:58.331Z,0.25
2022-07-30T16:45:25.987Z,0.38
2022-07-30T16:47:53.375Z,0.40
2022-07-30T16:50:20.752Z,0.38
2022-07-30T16:52:48.029Z,0.30
2022-07-30T16:55:15.333Z,0.40
2022-07-30T16:57:42.770Z,0.30
2022-07-30T17:00:12.280Z,0.28
2022-07-30T17:02:39.581Z,0.30
2022-07-30T17:05:09.585Z,0.40
2022-07-30T17:07:39.212Z,0.20
2022-07-30T17:10:06.782Z,0.20
2022-07-30T17:12:40.195Z,0.20
2022-07-30T17:15:08.045Z,0.30
2022-07-30T17:17:35.590Z,0.30
2022-07-30T17:20:05.661Z,0.20
2022-07-30T17:22:33.539Z,0.20
2022-07-30T17:25:00.937Z,0.10
2022-07-30T17:27:28.914Z,0.40
2022-07-30T17:29:56.345Z,0.30
2022-07-30T17:32:23.600Z,0.40
2022-07-30T17:34:50.898Z,0.40
2022-07-30T17:37:18.549Z,0.50
2022-07-30T17:40:24.758Z,0.40
2022-07-30T17:42:33.572Z,0.40
2022-07-30T17:45:01.422Z,0.20
2022-07-30T17:47:28.718Z,0.32
2022-07-30T17:49:56.474Z,0.30
2022-07-30T17:52:26.315Z,0.20
2022-07-30T17:54:54.574Z,0.30
2022-07-30T17:57:22.033Z,0.22
2022-07-30T17:59:49.274Z,0.30
2022-07-30T18:02:16.619Z,0.30
2022-07-30T18:04:47.332Z,0.30
2022-07-30T18:07:14.693Z,0.35
2022-07-30T18:09:41.917Z,0.30
2022-07-30T18:12:09.375Z,0.30
2022-07-30T18:14:37.532Z,0.50
2022-07-30T18:17:05.568Z,0.40
2022-07-30T18:19:32.941Z,0.40
2022-07-30T18:22:02.234Z,0.47
2022-07-30T18:24:30.613Z,0.30
2022-07-30T18:26:57.915Z,0.50
2022-07-30T18:29:25.306Z,0.30
2022-07-30T18:31:52.663Z,0.40
2022-07-30T18:34:19.970Z,0.40
2022-07-30T18:36:51.268Z,0.50
2022-07-30T18:39:18.931Z,0.40
2022-07-30T18:41:46.250Z,0.40
2022-07-30T18:44:13.517Z,0.55
2022-07-30T18:46:40.940Z,0.60
2022-07-30T18:49:26.917Z,0.45
2022-07-30T18:51:59.891Z,0.40
2022-07-30T18:54:27.993Z,0.40
2022-07-30T18:56:55.401Z,0.40
2022-07-30T18:59:22.743Z,0.40
2022-07-30T19:01:50.120Z,0.45
2022-07-30T19:04:17.430Z,0.50
2022-07-30T19:06:44.798Z,0.50
2022-07-30T19:09:17.265Z,0.30
2022-07-30T19:11:46.436Z,0.60
2022-07-30T19:14:14.525Z,0.55
2022-07-30T19:16:42.932Z,0.50
2022-07-30T19:19:12.880Z,0.50
2022-07-30T19:21:40.847Z,0.47
2022-07-30T19:24:09.974Z,0.40
2022-07-30T19:26:39.771Z,0.30
2022-07-30T19:29:08.102Z,0.50
2022-07-30T19:31:35.924Z,0.40
2022-07-30T19:34:03.682Z,0.50
2022-07-30T19:36:31.401Z,0.50
2022-07-30T19:38:59.036Z,0.30
2022-07-30T19:41:35.730Z,0.40
2022-07-30T19:44:04.296Z,0.50
2022-07-30T19:46:37.001Z,0.60
2022-07-30T19:49:06.719Z,0.75
2022-07-30T19:52:10.917Z,0.70
2022-07-30T19:54:21.780Z,0.70
2022-07-30T19:56:49.167Z,0.73
2022-07-30T19:59:18.385Z,0.52
2022-07-30T20:01:51.901Z,0.60
2022-07-30T20:04:19.533Z,0.40
2022-07-30T20:06:48.685Z,0.45
2022-07-30T20:09:17.103Z,0.40
2022-07-30T20:11:44.610Z,0.50
2022-07-30T20:14:12.247Z,0.50
2022-07-30T20:16:44.199Z,0.60
2022-07-30T20:19:15.823Z,0.50
2022-07-30T20:21:56.949Z,0.43
2022-07-30T20:24:31.556Z,0.70
2022-07-30T20:27:01.775Z,0.45
2022-07-30T20:29:49.075Z,0.65
2022-07-30T20:32:17.708Z,0.65
2022-07-30T20:34:45.907Z,0.60
2022-07-30T20:37:21.605Z,0.70
2022-07-30T20:39:50.310Z,0.70
2022-07-30T20:42:18.520Z,0.80
2022-07-30T20:44:50.679Z,0.85
2022-07-30T20:47:34.232Z,0.60
2022-07-30T20:50:03.032Z,0.55
2022-07-30T20:52:30.361Z,0.57
2022-07-30T20:54:57.715Z,0.52
2022-07-30T20:57:30.815Z,0.77
2022-07-30T21:00:12.943Z,0.80
2022-07-30T21:02:40.464Z,0.70
2022-07-30T21:05:08.270Z,0.70
2022-07-30T21:07:41.515Z,0.80
2022-07-30T21:10:12.300Z,0.75
2022-07-30T21:12:39.993Z,0.65
2022-07-30T21:15:15.757Z,0.88
2022-07-30T21:17:51.991Z,0.80
2022-07-30T21:20:27.938Z,0.50
2022-07-30T21:23:10.283Z,0.80
2022-07-30T21:26:00.507Z,0.70
2022-07-30T21:28:28.316Z,0.45
2022-07-30T21:30:57.090Z,0.50
2022-07-30T21:33:27.043Z,0.60
2022-07-30T21:35:59.749Z,0.50
2022-07-30T21:38:28.635Z,0.50
2022-07-30T21:40:58.686Z,0.40
2022-07-30T21:43:29.832Z,0.40
2022-07-30T21:45:58.841Z,0.43
2022-07-30T21:48:26.893Z,0.50
2022-07-30T21:50:55.068Z,0.90
2022-07-30T21:56:13.551Z,0.50
2022-07-30T21:58:42.370Z,0.60
2022-07-30T22:01:17.491Z,0.50
2022-07-30T22:04:04.281Z,0.60
2022-07-30T22:06:39.730Z,0.47
2022-07-30T22:09:18.764Z,0.50
2022-07-30T22:11:54.710Z,0.40
2022-07-30T22:14:25.605Z,0.40
2022-07-30T22:16:54.576Z,0.60
2022-07-30T22:19:22.109Z,0.50
2022-07-30T22:21:50.972Z,0.70
2022-07-30T22:24:29.472Z,0.60
2022-07-30T22:27:11.015Z,0.50
2022-07-30T22:29:43.341Z,0.40
2022-07-30T22:32:11.927Z,0.50
2022-07-30T22:34:39.473Z,0.63
2022-07-30T22:37:09.202Z,0.50
2022-07-30T22:39:50.872Z,0.60
2022-07-30T22:42:24.408Z,0.70
2022-07-30T22:44:54.811Z,0.40
2022-07-30T22:47:53.899Z,0.60
2022-07-30T22:50:11.668Z,0.60
2022-07-30T22:52:50.110Z,0.50
2022-07-30T22:55:23.431Z,0.73
2022-07-30T22:57:51.218Z,0.60
2022-07-30T23:00:27.292Z,0.60
2022-07-30T23:03:07.842Z,0.90
2022-07-30T23:05:35.812Z,0.57
2022-07-30T23:08:04.562Z,0.60
2022-07-30T23:10:32.160Z,0.57
2022-07-30T23:12:27.746Z,0.50
2022-07-30T23:12:59.535Z,0.75
2022-07-30T23:15:26.995Z,0.60
2022-07-30T23:17:54.370Z,0.68
2022-07-30T23:20:21.947Z,0.77
2022-07-30T23:22:49.800Z,0.80
2022-07-30T23:25:17.527Z,0.70
2022-07-30T23:27:46.871Z,0.70
2022-07-30T23:30:14.452Z,0.70
2022-07-30T23:32:41.917Z,0.60
2022-07-30T23:35:10.247Z,1.38
2022-07-30T23:37:48.991Z,0.60
2022-07-30T23:40:19.629Z,0.68
2022-07-30T23:42:50.210Z,0.65
2022-07-30T23:45:18.432Z,0.57
2022-07-30T23:48:01.088Z,0.70
2022-07-30T23:50:34.430Z,0.60
2022-07-30T23:53:04.410Z,0.50
2022-07-30T23:55:32.324Z,0.57
2022-07-30T23:58:00.426Z,0.60
